Aeroporto :
LOGIN :

Iscrizione | Disclaimer

   EN    FR    IT 

 










Sommario :    VFR   VFR Marginale   IFR   IFR Intensivo   IFR Molto Intensivo
Visibilità : 
Base nubi : 
>= 8 km
>= 3000ft
5 / 8 km
1000 / 3000 ft
1500m / 5 km
500 / 1000 ft
800 / 1500m
200 / 500 ft
< 800m
< 200 ft
Simboli :   Temporali  Nebbia  Neve Forte  Precipitazioni Forti  Vento > 20 kt
SIGMETs :   Varie  Temporali  Ghiacco  Turbolenza  Onda orograficha  Ceneri Vulcaniche






- Altitudine del aeroporto : 392 ft
- Codice IATA : CDG


LFPG - Paris-Aeroport Charles De Gaulle

ULTIMO METAR :
  • 181200Z 20016KT 9999 BKN040 26/16 Q1011 TEMPO 20015G25KT

METARs OBSOLETI :
  • 181130Z 20016KT 9999 SCT040 26/16 Q1011 TEMPO 20015G25KT
  • 181100Z 19015KT 9999 SCT037 26/16 Q1011 TEMPO 20015G25KT
  • 181030Z 17014KT 120V200 9999 SCT034 26/16 Q1011 TEMPO 20015G25KT
  • 181000Z 19014KT 9999 FEW030 26/16 Q1011 NOSIG
  • 180930Z 17011KT 9999 FEW029 25/17 Q1011 NOSIG

TAF TAF LFPG
Valido dal 18 a 12 ore il 19 a 18 ore UTC


181100Z 1812/1918 20015G25KT CAVOK TX28/1815Z TN17/1905Z
TEMPO 1815/1818 SCT050TCU
BECMG 1819/1821 23005KT
BECMG 1823/1901 BKN010
PROB30
TEMPO 1903/1905 4000 BR BKN006
BECMG 1908/1910 07005KT CAVOK
TEMPO 1915/1918 4000 SHRA FEW045CB
PROB40
TEMPO 1915/1918 VRB10G20KT 1500 TSGRRA BKN040CB
ATIS : +33 1 48 62 10 92



MetMap, La meteo Aeronautica in un colpo d'occhio ! - Copyright ORBIFLY Dicembre 2007 - Disclaimer

ORBIFLY MET'MAP TEAM :

Programmazione e sviluppo : Alexandra Zaïnal
Concezione : Baudouin d'Aumeries
Aiuto per la programmazione : Marc-Olivier Méhu
Supporto tecnico e logistico : Manuel Goepfert
Aiuto per la traduzione : Arnaldo La Scala

Contatto : metmap@orbifly.com




FONTI E CREDITI :

   NOAA